Time;durP1;ratioP1;P1;durP2;ratioP2;P2;SDS_P1;SDS_P2;PMS_P1;PMS_P2;Temp;Humidity;BMP_temperature;BMP_pressure;BME280_temperature;BME280_humidity;BME280_pressure;Samples;Min_cycle;Max_cycle;Signal;HPM_P1;HPM_P2
2023/03/08 00:00:05;;;;;;;9.73;1.80;;;1.10;99.90;;;;;;5055114;28;20251;-70
2023/03/08 00:02:31;;;;;;;9.93;2.03;;;1.00;99.90;;;;;;5053264;28;20201;-72
2023/03/08 00:04:56;;;;;;;4.13;2.10;;;0.90;99.90;;;;;;5054690;28;20207;-71
2023/03/08 00:07:23;;;;;;;5.43;1.93;;;0.90;99.90;;;;;;5055037;28;20891;-69
2023/03/08 00:09:48;;;;;;;1.80;1.50;;;0.80;99.90;;;;;;5054670;28;20220;-70
2023/03/08 00:12:18;;;;;;;2.50;1.60;;;0.80;99.90;;;;;;5054573;28;20194;-71
2023/03/08 00:14:43;;;;;;;3.83;2.17;;;0.70;99.90;;;;;;5049708;28;20748;-72
2023/03/08 00:17:09;;;;;;;5.33;1.90;;;0.70;99.90;;;;;;5049466;28;20264;-65
2023/03/08 00:19:34;;;;;;;3.40;1.90;;;0.60;99.90;;;;;;5054329;28;20206;-67
2023/03/08 00:22:00;;;;;;;2.20;1.97;;;0.60;99.90;;;;;;5054189;28;20208;-66
2023/03/08 00:24:26;;;;;;;6.93;2.53;;;0.50;99.90;;;;;;5053986;28;20740;-69
2023/03/08 00:26:51;;;;;;;7.67;2.70;;;0.60;99.90;;;;;;5052614;28;20209;-66
2023/03/08 00:29:16;;;;;;;4.53;2.40;;;0.60;99.90;;;;;;5054118;28;20781;-66
2023/03/08 00:31:42;;;;;;;2.57;1.73;;;0.50;99.90;;;;;;5054097;28;20201;-66
2023/03/08 00:34:07;;;;;;;8.47;3.60;;;0.50;99.90;;;;;;5054170;28;20674;-66
2023/03/08 00:36:33;;;;;;;3.47;2.13;;;0.40;99.90;;;;;;5054214;28;20635;-67
2023/03/08 00:38:58;;;;;;;5.50;2.83;;;0.50;99.90;;;;;;5054510;28;20216;-66
2023/03/08 00:41:24;;;;;;;2.90;1.73;;;0.40;99.90;;;;;;5052338;28;20224;-66
2023/03/08 00:43:49;;;;;;;4.33;2.43;;;0.40;99.90;;;;;;5054267;28;20567;-66
2023/03/08 00:46:15;;;;;;;2.50;2.30;;;0.30;99.90;;;;;;5055485;28;20219;-65
2023/03/08 00:48:41;;;;;;;6.43;2.53;;;0.30;99.90;;;;;;5057908;28;20223;-70
2023/03/08 00:51:08;;;;;;;6.77;2.40;;;0.30;99.90;;;;;;5057921;28;20196;-67
2023/03/08 00:53:33;;;;;;;3.77;2.10;;;0.30;99.90;;;;;;5055485;28;20666;-66
2023/03/08 00:55:59;;;;;;;5.07;2.43;;;0.30;99.90;;;;;;5057651;28;20252;-79
2023/03/08 00:58:27;;;;;;;5.50;3.07;;;0.20;99.90;;;;;;5057698;28;20243;-65
2023/03/08 01:00:52;;;;;;;4.57;3.07;;;0.10;99.90;;;;;;5057742;28;20301;-64
2023/03/08 01:03:20;;;;;;;3.70;2.10;;;0.20;99.90;;;;;;5057421;28;20901;-63
2023/03/08 01:05:48;;;;;;;3.83;2.00;;;0.20;99.90;;;;;;5057140;28;20569;-63
2023/03/08 01:08:15;;;;;;;4.17;2.53;;;0.20;99.90;;;;;;5054424;28;20223;-66
2023/03/08 01:10:50;;;;;;;4.60;2.10;;;0.20;99.90;;;;;;5057853;28;20616;-66
2023/03/08 01:13:16;;;;;;;5.90;2.90;;;0.10;99.90;;;;;;5053180;28;20200;-64
2023/03/08 01:15:42;;;;;;;5.83;2.90;;;0.10;99.90;;;;;;5056638;28;20206;-65
2023/03/08 01:18:08;;;;;;;4.93;3.07;;;0.10;99.90;;;;;;5057506;28;20666;-66
2023/03/08 01:20:33;;;;;;;4.80;3.03;;;0.00;99.90;;;;;;5056255;28;20299;-66
2023/03/08 01:22:59;;;;;;;3.03;2.40;;;0.00;99.90;;;;;;5056339;28;20224;-64
2023/03/08 01:25:25;;;;;;;4.30;2.70;;;-0.10;99.90;;;;;;5038589;28;20289;-63
2023/03/08 01:27:50;;;;;;;3.77;2.97;;;-0.10;99.90;;;;;;5054780;28;20561;-64
2023/03/08 01:30:16;;;;;;;7.97;3.73;;;-0.10;99.90;;;;;;5056837;28;20223;-63
2023/03/08 01:32:42;;;;;;;3.80;3.40;;;-0.10;99.90;;;;;;5057411;28;21043;-67
2023/03/08 01:35:09;;;;;;;7.13;4.07;;;-0.10;99.90;;;;;;5054712;28;20750;-65
2023/03/08 01:37:35;;;;;;;5.27;4.17;;;0.00;99.90;;;;;;5054299;28;20230;-65
2023/03/08 01:40:01;;;;;;;7.17;4.07;;;0.00;99.90;;;;;;5057510;28;20294;-64
2023/03/08 01:42:27;;;;;;;6.60;3.53;;;0.00;99.90;;;;;;5057354;28;20665;-65
2023/03/08 01:44:55;;;;;;;6.13;4.03;;;0.10;99.90;;;;;;5056997;28;20303;-66
2023/03/08 01:47:27;;;;;;;8.77;5.07;;;0.10;99.90;;;;;;5056507;28;20289;-64
2023/03/08 01:50:01;;;;;;;11.37;4.77;;;0.20;99.90;;;;;;5051212;28;20212;-65
2023/03/08 01:52:34;;;;;;;8.20;4.20;;;0.20;99.90;;;;;;5053759;28;20199;-64
2023/03/08 01:55:03;;;;;;;6.87;4.27;;;0.20;99.90;;;;;;5054377;28;20205;-63
2023/03/08 01:57:33;;;;;;;8.93;4.67;;;0.30;99.90;;;;;;5052810;28;20208;-63
2023/03/08 02:00:08;;;;;;;7.90;6.43;;;0.30;99.90;;;;;;5056598;28;20629;-63
2023/03/08 02:02:43;;;;;;;6.30;4.40;;;0.30;99.90;;;;;;5054162;28;20223;-64
2023/03/08 02:05:10;;;;;;;6.37;4.77;;;0.30;99.90;;;;;;5054659;28;20210;-62
2023/03/08 02:07:35;;;;;;;11.97;5.60;;;0.30;99.90;;;;;;5056420;28;20289;-66
2023/03/08 02:10:01;;;;;;;7.43;5.30;;;0.30;99.90;;;;;;5054473;28;20267;-75
2023/03/08 02:12:27;;;;;;;5.30;4.80;;;0.30;99.90;;;;;;5056360;28;20211;-63
2023/03/08 02:14:54;;;;;;;5.53;4.60;;;0.30;99.90;;;;;;5056392;28;20209;-64
2023/03/08 02:17:21;;;;;;;7.67;5.63;;;0.20;99.90;;;;;;5056752;28;20215;-65
2023/03/08 02:20:14;;;;;;;8.13;5.87;;;0.00;99.90;;;;;;5056234;28;20203;-65
2023/03/08 02:22:42;;;;;;;6.37;5.47;;;0.00;99.90;;;;;;5052499;28;20251;-64
2023/03/08 02:25:16;;;;;;;7.90;5.50;;;0.10;99.90;;;;;;5054531;28;20196;-65
2023/03/08 02:27:42;;;;;;;8.90;6.53;;;0.10;99.90;;;;;;5053318;28;20590;-66
2023/03/08 02:30:09;;;;;;;7.57;5.87;;;0.10;99.90;;;;;;5055949;28;20204;-64
2023/03/08 02:32:35;;;;;;;9.73;5.60;;;0.00;99.90;;;;;;5055597;28;20916;-64
2023/03/08 02:35:01;;;;;;;13.00;6.17;;;-0.10;99.90;;;;;;5053891;28;20208;-63
2023/03/08 02:37:26;;;;;;;10.87;7.07;;;-0.10;99.90;;;;;;5055810;28;20200;-65
2023/03/08 02:39:52;;;;;;;9.13;6.87;;;0.00;99.90;;;;;;5055821;28;20290;-63
2023/03/08 02:42:17;;;;;;;11.30;7.73;;;0.00;99.90;;;;;;5055575;28;20198;-64
2023/03/08 02:44:43;;;;;;;12.37;6.90;;;0.00;99.90;;;;;;5055656;28;20192;-64
2023/03/08 02:47:08;;;;;;;9.43;7.10;;;-0.10;99.90;;;;;;5053922;28;20279;-65
2023/03/08 02:49:34;;;;;;;10.97;7.83;;;-0.10;99.90;;;;;;5055365;28;20267;-63
2023/03/08 02:51:59;;;;;;;12.23;7.90;;;-0.10;99.90;;;;;;5055820;28;20196;-64
2023/03/08 02:54:25;;;;;;;10.63;7.33;;;-0.10;99.90;;;;;;5037418;28;20535;-65
2023/03/08 02:56:50;;;;;;;13.03;8.60;;;-0.10;99.90;;;;;;5055420;28;20243;-63
2023/03/08 02:59:16;;;;;;;12.97;9.30;;;-0.10;99.90;;;;;;5055718;28;20744;-63
2023/03/08 03:01:41;;;;;;;14.10;8.10;;;-0.10;99.90;;;;;;5054520;28;20289;-63
2023/03/08 03:04:07;;;;;;;13.57;9.63;;;-0.10;99.90;;;;;;5055574;28;20688;-64
2023/03/08 03:06:32;;;;;;;13.77;8.10;;;-0.10;99.90;;;;;;5055491;28;20226;-70
2023/03/08 03:08:58;;;;;;;12.67;8.47;;;-0.20;99.90;;;;;;5055295;28;20218;-63
2023/03/08 03:11:23;;;;;;;12.90;8.30;;;-0.20;99.90;;;;;;5053240;28;20563;-63
2023/03/08 03:13:57;;;;;;;12.10;8.93;;;0.00;99.90;;;;;;5052494;28;20198;-67
2023/03/08 03:16:23;;;;;;;13.43;9.40;;;0.10;99.90;;;;;;5052529;28;20198;-68
2023/03/08 03:18:50;;;;;;;12.63;8.17;;;0.10;99.90;;;;;;5054800;28;20207;-66
2023/03/08 03:21:15;;;;;;;14.33;9.87;;;0.10;99.90;;;;;;5053620;28;20219;-72
2023/03/08 03:23:41;;;;;;;13.43;8.70;;;0.20;99.90;;;;;;5055819;28;20607;-66
2023/03/08 03:26:10;;;;;;;14.33;9.57;;;0.20;99.90;;;;;;5055256;28;20311;-65
2023/03/08 03:28:35;;;;;;;15.33;8.70;;;0.10;99.90;;;;;;5052442;28;20269;-64
2023/03/08 03:31:05;;;;;;;12.07;7.87;;;0.10;99.90;;;;;;5056345;28;20201;-64
2023/03/08 03:33:30;;;;;;;12.40;8.73;;;0.10;99.90;;;;;;5054955;28;20204;-64
2023/03/08 03:35:56;;;;;;;14.87;8.37;;;0.00;99.90;;;;;;5056326;28;20211;-65
2023/03/08 03:38:21;;;;;;;12.10;8.87;;;-0.20;99.90;;;;;;5033907;28;20301;-64
2023/03/08 03:40:47;;;;;;;19.97;9.43;;;-0.20;99.90;;;;;;5053736;28;20205;-64
2023/03/08 03:43:13;;;;;;;14.90;9.83;;;-0.20;99.90;;;;;;5055095;28;20315;-65
2023/03/08 03:45:38;;;;;;;15.70;9.27;;;-0.10;99.90;;;;;;5055671;28;20208;-66
2023/03/08 03:48:04;;;;;;;11.63;8.83;;;0.00;99.90;;;;;;5055803;28;20192;-63
2023/03/08 03:50:29;;;;;;;13.67;9.23;;;-0.10;99.90;;;;;;5055534;28;20333;-65
2023/03/08 03:52:55;;;;;;;11.77;9.50;;;-0.20;99.90;;;;;;5055376;28;20215;-66
2023/03/08 03:55:20;;;;;;;15.60;9.63;;;-0.20;99.90;;;;;;5053649;28;20335;-64
2023/03/08 03:57:46;;;;;;;12.20;9.70;;;-0.30;99.90;;;;;;5055371;28;20213;-65
2023/03/08 04:00:12;;;;;;;14.50;9.43;;;-0.30;99.90;;;;;;5055625;28;20880;-64
2023/03/08 04:02:37;;;;;;;13.90;9.27;;;-0.30;99.90;;;;;;5054986;28;21106;-64
2023/03/08 04:05:03;;;;;;;13.77;9.20;;;-0.30;99.90;;;;;;5055205;28;20365;-64
2023/03/08 04:07:29;;;;;;;11.87;9.77;;;-0.30;99.90;;;;;;5053313;28;20224;-65
2023/03/08 04:09:54;;;;;;;16.60;10.37;;;-0.30;99.90;;;;;;5055397;28;20301;-64
2023/03/08 04:12:19;;;;;;;13.57;9.27;;;-0.20;99.90;;;;;;5055779;28;20299;-64
2023/03/08 04:14:45;;;;;;;17.60;10.33;;;-0.30;99.90;;;;;;5055324;28;20717;-65
2023/03/08 04:17:10;;;;;;;13.53;9.87;;;-0.40;99.90;;;;;;5055580;28;20204;-65
2023/03/08 04:19:36;;;;;;;14.00;8.20;;;-0.40;99.90;;;;;;5055371;28;20614;-65
2023/03/08 04:22:02;;;;;;;12.47;9.17;;;-0.40;99.90;;;;;;5055294;28;21021;-64
2023/03/08 04:24:27;;;;;;;15.30;9.30;;;-0.50;99.90;;;;;;5055879;28;20257;-63
2023/03/08 04:26:53;;;;;;;16.27;10.03;;;-0.50;99.90;;;;;;5054256;28;21017;-64
2023/03/08 04:29:18;;;;;;;16.27;9.83;;;-0.50;99.90;;;;;;5058256;28;20203;-63
2023/03/08 04:31:44;;;;;;;13.13;9.17;;;-0.40;99.90;;;;;;5058968;28;20200;-64
2023/03/08 04:34:09;;;;;;;13.03;9.47;;;-0.40;99.90;;;;;;5058048;28;20549;-64
2023/03/08 04:36:36;;;;;;;13.97;9.27;;;-0.40;99.90;;;;;;5056361;28;20631;-64
2023/03/08 04:39:01;;;;;;;9.60;8.60;;;-0.40;99.90;;;;;;5057623;28;20195;-65
2023/03/08 04:41:27;;;;;;;15.00;9.60;;;-0.50;99.90;;;;;;5058728;28;20211;-65
2023/03/08 04:43:55;;;;;;;14.70;9.07;;;-0.60;99.90;;;;;;5058412;28;20200;-74
2023/03/08 04:46:26;;;;;;;12.17;9.23;;;-0.60;99.90;;;;;;5056568;28;20575;-69
2023/03/08 04:48:52;;;;;;;15.57;10.03;;;-0.40;99.90;;;;;;5055843;28;20221;-69
2023/03/08 04:51:19;;;;;;;13.73;9.50;;;-0.20;99.90;;;;;;5056017;28;20562;-68
2023/03/08 04:53:44;;;;;;;13.23;9.97;;;-0.10;99.90;;;;;;5055086;28;20207;-68
2023/03/08 04:56:11;;;;;;;11.30;9.07;;;0.00;99.90;;;;;;5054720;28;20607;-68
2023/03/08 04:58:38;;;;;;;12.90;9.73;;;0.10;99.90;;;;;;5055133;28;20208;-63
2023/03/08 05:01:18;;;;;;;16.07;9.50;;;0.20;99.90;;;;;;5054392;28;20311;-64
2023/03/08 05:03:44;;;;;;;14.40;9.63;;;-0.10;99.90;;;;;;5049119;28;20241;-65
2023/03/08 05:06:12;;;;;;;13.07;9.20;;;-0.20;99.90;;;;;;5058599;28;20314;-65
2023/03/08 05:08:38;;;;;;;14.33;9.07;;;-0.30;99.90;;;;;;5058052;28;20220;-63
2023/03/08 05:11:04;;;;;;;11.43;9.70;;;-0.40;99.90;;;;;;5058411;28;20214;-63
2023/03/08 05:13:32;;;;;;;20.53;9.60;;;-0.40;99.90;;;;;;5058247;28;20240;-63
2023/03/08 05:15:58;;;;;;;14.40;9.50;;;-0.40;99.90;;;;;;5058222;28;20201;-63
2023/03/08 05:18:23;;;;;;;19.43;9.63;;;-0.50;99.90;;;;;;5057968;28;20203;-63
2023/03/08 05:20:58;;;;;;;13.53;9.57;;;-0.50;99.90;;;;;;5057911;28;21172;-64
2023/03/08 05:23:25;;;;;;;12.47;9.43;;;-0.50;99.90;;;;;;5057340;28;20284;-63
2023/03/08 05:25:53;;;;;;;11.27;8.40;;;-0.50;99.90;;;;;;5056150;28;20546;-64
2023/03/08 05:28:19;;;;;;;12.57;8.47;;;-0.50;99.90;;;;;;5057997;28;20231;-66
2023/03/08 05:30:45;;;;;;;13.77;8.47;;;-0.50;99.90;;;;;;5057926;28;20856;-64
2023/03/08 05:33:11;;;;;;;12.07;8.50;;;-0.50;99.90;;;;;;5057605;28;20210;-64
2023/03/08 05:35:36;;;;;;;13.33;9.20;;;-0.50;99.90;;;;;;5055478;28;20199;-63
2023/03/08 05:38:01;;;;;;;10.97;9.17;;;-0.50;99.90;;;;;;5057666;28;20271;-64
2023/03/08 05:40:27;;;;;;;11.83;8.70;;;-0.60;99.90;;;;;;5057728;28;20734;-64
2023/03/08 05:42:53;;;;;;;20.90;9.93;;;-0.50;99.90;;;;;;5057806;28;20194;-64
2023/03/08 05:45:19;;;;;;;12.10;9.60;;;-0.50;99.90;;;;;;5058158;28;20187;-64
2023/03/08 05:47:45;;;;;;;12.83;9.60;;;-0.50;99.90;;;;;;5057121;28;20774;-64
2023/03/08 05:50:10;;;;;;;11.27;8.50;;;-0.40;99.90;;;;;;5055748;28;20228;-63
2023/03/08 05:52:36;;;;;;;15.33;8.87;;;-0.40;99.90;;;;;;5057750;28;20214;-64
2023/03/08 05:55:02;;;;;;;14.20;9.90;;;-0.30;99.90;;;;;;5057525;28;20314;-64
2023/03/08 05:57:27;;;;;;;12.23;8.73;;;-0.30;99.90;;;;;;5055732;28;20235;-64
2023/03/08 05:59:53;;;;;;;14.50;10.00;;;-0.30;99.90;;;;;;5052345;28;20203;-65
2023/03/08 06:02:18;;;;;;;13.67;9.27;;;-0.20;99.90;;;;;;5056848;28;20191;-64
2023/03/08 06:04:44;;;;;;;12.50;9.03;;;-0.10;99.90;;;;;;5057437;28;20486;-63
2023/03/08 06:07:09;;;;;;;13.73;8.87;;;-0.10;99.90;;;;;;5057198;28;20932;-63
2023/03/08 06:09:35;;;;;;;11.87;9.40;;;0.00;99.90;;;;;;5056736;28;20802;-63
2023/03/08 06:12:00;;;;;;;12.30;8.97;;;0.00;99.90;;;;;;5055032;28;20205;-64
2023/03/08 06:14:26;;;;;;;11.93;8.60;;;0.00;99.90;;;;;;5056844;28;20544;-64
2023/03/08 06:16:51;;;;;;;13.67;9.23;;;0.00;99.90;;;;;;5056901;28;20206;-65
2023/03/08 06:19:17;;;;;;;11.37;8.97;;;0.00;99.90;;;;;;5057102;28;20191;-65
2023/03/08 06:21:43;;;;;;;10.17;8.03;;;0.00;99.90;;;;;;5056630;28;20191;-64
2023/03/08 06:24:08;;;;;;;14.67;8.30;;;0.00;99.90;;;;;;5056415;28;20220;-64
2023/03/08 06:26:34;;;;;;;13.20;10.30;;;0.00;99.90;;;;;;5054358;28;20191;-65
2023/03/08 06:28:59;;;;;;;10.97;9.07;;;0.00;99.90;;;;;;5056977;28;20207;-65
2023/03/08 06:31:25;;;;;;;12.07;9.30;;;0.00;99.90;;;;;;5056567;28;20278;-63
2023/03/08 06:33:50;;;;;;;15.47;9.13;;;0.10;99.90;;;;;;5056571;28;20228;-64
2023/03/08 06:36:18;;;;;;;13.10;9.20;;;0.10;99.90;;;;;;5056692;28;20305;-64
2023/03/08 06:38:44;;;;;;;13.00;9.97;;;0.10;99.90;;;;;;5054548;28;20199;-65
2023/03/08 06:41:11;;;;;;;10.50;8.27;;;0.20;99.90;;;;;;5056464;28;20203;-65
2023/03/08 06:43:37;;;;;;;11.77;9.30;;;0.20;99.90;;;;;;5055939;28;20727;-64
2023/03/08 06:46:07;;;;;;;12.93;8.27;;;0.30;99.90;;;;;;5056372;28;20556;-65
2023/03/08 06:48:34;;;;;;;11.57;8.90;;;0.40;99.90;;;;;;5054607;28;20212;-65
2023/03/08 06:51:00;;;;;;;13.93;9.50;;;0.50;99.90;;;;;;5051861;28;20192;-64
2023/03/08 06:53:25;;;;;;;9.47;7.80;;;0.60;99.90;;;;;;5056569;28;20729;-65
2023/03/08 06:55:51;;;;;;;10.33;8.20;;;0.70;99.90;;;;;;5056530;28;20210;-65
2023/03/08 06:58:17;;;;;;;12.03;8.73;;;0.70;99.90;;;;;;5056227;28;20878;-65
2023/03/08 07:00:43;;;;;;;14.27;9.07;;;0.80;99.90;;;;;;5055316;28;20203;-65
2023/03/08 07:03:13;;;;;;;12.40;9.57;;;0.80;99.90;;;;;;5051484;28;20194;-64
2023/03/08 07:05:39;;;;;;;11.30;8.43;;;0.90;99.90;;;;;;5055912;28;20193;-64
2023/03/08 07:08:05;;;;;;;10.30;8.13;;;0.90;99.90;;;;;;5056009;28;20192;-64
2023/03/08 07:10:31;;;;;;;9.57;7.20;;;1.00;99.90;;;;;;5055921;28;20290;-63
2023/03/08 07:12:57;;;;;;;11.00;8.07;;;1.00;99.90;;;;;;5055225;28;20196;-64
2023/03/08 07:15:23;;;;;;;9.57;7.57;;;1.20;99.90;;;;;;5055700;28;20267;-64
2023/03/08 07:17:51;;;;;;;10.70;8.10;;;1.30;99.90;;;;;;5056055;28;20204;-64
2023/03/08 07:20:19;;;;;;;10.97;7.57;;;1.30;99.90;;;;;;5055800;28;20190;-64
2023/03/08 07:22:45;;;;;;;9.47;7.43;;;1.40;99.90;;;;;;5053665;28;20688;-64
2023/03/08 07:25:13;;;;;;;9.50;7.70;;;1.40;99.90;;;;;;5056286;28;20287;-64
2023/03/08 07:27:38;;;;;;;11.47;8.83;;;1.40;99.90;;;;;;5055918;28;20224;-64
2023/03/08 07:30:05;;;;;;;9.40;7.80;;;1.40;99.90;;;;;;5055813;28;20216;-65
2023/03/08 07:32:30;;;;;;;14.10;7.47;;;1.50;99.90;;;;;;5055670;28;20200;-65
2023/03/08 07:34:56;;;;;;;8.40;7.50;;;1.60;99.90;;;;;;5055690;28;20389;-65
2023/03/08 07:37:22;;;;;;;12.43;7.30;;;1.70;99.90;;;;;;5054887;28;20197;-64
2023/03/08 07:39:48;;;;;;;9.13;8.03;;;1.70;99.90;;;;;;5056071;28;20208;-64
2023/03/08 07:42:13;;;;;;;10.33;8.17;;;1.80;99.90;;;;;;5055702;28;20578;-64
2023/03/08 07:44:39;;;;;;;11.77;8.13;;;1.90;99.90;;;;;;5055787;28;20206;-64
2023/03/08 07:47:05;;;;;;;12.87;8.50;;;1.80;99.90;;;;;;5055954;28;20234;-65
2023/03/08 07:49:31;;;;;;;10.33;7.13;;;1.80;99.90;;;;;;5032843;28;20245;-64
2023/03/08 07:51:56;;;;;;;12.57;7.77;;;2.00;99.90;;;;;;5055384;28;20353;-64
2023/03/08 07:54:22;;;;;;;11.03;7.80;;;2.20;99.90;;;;;;5056221;28;20249;-64
2023/03/08 07:56:48;;;;;;;8.70;6.73;;;2.20;99.90;;;;;;5058636;28;20552;-65
2023/03/08 07:59:13;;;;;;;7.63;6.47;;;2.20;99.90;;;;;;5059743;28;20205;-65
2023/03/08 08:01:39;;;;;;;10.47;7.57;;;2.20;99.90;;;;;;5059269;28;20257;-65
2023/03/08 08:04:06;;;;;;;8.40;7.23;;;2.30;99.90;;;;;;5057372;28;20292;-64
2023/03/08 08:06:35;;;;;;;8.13;7.33;;;2.40;99.90;;;;;;5059734;28;20201;-65
2023/03/08 08:09:00;;;;;;;9.27;6.80;;;2.40;99.90;;;;;;5059641;28;20625;-64
2023/03/08 08:11:26;;;;;;;13.43;7.30;;;2.60;99.90;;;;;;5059577;28;20196;-65
2023/03/08 08:13:51;;;;;;;7.20;6.50;;;2.70;99.90;;;;;;5059398;28;20562;-63
2023/03/08 08:16:17;;;;;;;7.20;6.40;;;2.70;99.90;;;;;;5054633;28;20194;-68
2023/03/08 08:18:43;;;;;;;9.03;6.30;;;2.70;99.90;;;;;;5057535;28;20575;-65
2023/03/08 08:21:14;;;;;;;10.03;6.57;;;2.80;99.90;;;;;;5059005;28;20664;-63
2023/03/08 08:23:43;;;;;;;7.40;6.37;;;2.90;99.90;;;;;;5059258;28;20703;-65
2023/03/08 08:26:11;;;;;;;8.27;7.07;;;3.00;99.90;;;;;;5059597;28;20297;-65
2023/03/08 08:28:39;;;;;;;8.13;6.40;;;3.00;99.90;;;;;;5059209;28;20282;-65
2023/03/08 08:31:14;;;;;;;7.00;6.30;;;2.80;99.90;;;;;;5059362;28;20198;-64
2023/03/08 08:33:40;;;;;;;6.77;6.03;;;2.80;99.90;;;;;;5059200;28;20204;-66
2023/03/08 08:36:12;;;;;;;6.53;5.83;;;2.80;99.90;;;;;;5041149;28;20276;-66
2023/03/08 08:38:37;;;;;;;7.10;6.40;;;2.80;99.90;;;;;;5059127;28;20227;-65
2023/03/08 08:41:05;;;;;;;10.50;6.10;;;3.00;99.90;;;;;;5057266;28;20206;-65
2023/03/08 08:43:32;;;;;;;6.13;5.53;;;3.10;99.90;;;;;;5060527;28;20212;-66
2023/03/08 08:45:58;;;;;;;9.97;5.53;;;3.00;99.90;;;;;;5059545;28;20280;-64
2023/03/08 08:48:26;;;;;;;9.43;6.07;;;2.90;99.90;;;;;;5040984;28;20218;-64
2023/03/08 08:50:52;;;;;;;6.67;5.27;;;2.90;99.90;;;;;;5059132;28;20228;-64
2023/03/08 08:53:18;;;;;;;5.57;4.97;;;2.90;99.90;;;;;;5057629;28;20661;-67
2023/03/08 08:55:44;;;;;;;6.87;6.00;;;3.00;99.90;;;;;;5058801;28;20198;-64
2023/03/08 08:58:09;;;;;;;7.40;6.00;;;3.00;99.90;;;;;;5059207;28;20198;-65
2023/03/08 09:00:36;;;;;;;5.70;5.20;;;3.20;99.90;;;;;;5058630;28;20194;-65
2023/03/08 09:03:02;;;;;;;5.20;4.70;;;3.30;99.90;;;;;;5058859;28;20195;-65
2023/03/08 09:05:28;;;;;;;5.30;4.80;;;3.20;99.90;;;;;;5057043;28;20684;-66
2023/03/08 09:07:59;;;;;;;5.80;3.60;;;3.30;99.90;;;;;;5057981;28;20251;-64
2023/03/08 09:10:27;;;;;;;4.60;4.13;;;3.50;99.90;;;;;;5058705;28;20209;-64
2023/03/08 09:12:52;;;;;;;4.40;3.83;;;3.20;99.90;;;;;;5058820;28;20233;-65
2023/03/08 09:15:20;;;;;;;4.37;3.80;;;3.20;99.90;;;;;;5058491;28;20605;-65
2023/03/08 09:17:46;;;;;;;4.63;3.13;;;3.00;99.90;;;;;;5056736;28;20212;-65
2023/03/08 09:20:12;;;;;;;6.83;4.33;;;3.30;99.90;;;;;;5058421;28;20630;-65
2023/03/08 09:22:38;;;;;;;4.50;2.80;;;3.60;99.90;;;;;;5058462;28;20660;-64
2023/03/08 09:25:07;;;;;;;3.47;3.23;;;3.70;99.90;;;;;;5058771;28;20206;-65
2023/03/08 09:27:34;;;;;;;3.07;2.77;;;3.70;99.90;;;;;;5056575;28;20206;-67
2023/03/08 09:29:59;;;;;;;4.37;3.43;;;3.70;99.90;;;;;;5054228;28;20214;-64
2023/03/08 09:32:25;;;;;;;3.23;2.93;;;3.80;99.90;;;;;;5058495;28;20205;-64
2023/03/08 09:34:52;;;;;;;3.93;2.93;;;3.70;99.90;;;;;;5058354;28;20815;-66
2023/03/08 09:37:18;;;;;;;3.17;2.87;;;3.90;99.90;;;;;;5058664;28;20206;-65
2023/03/08 09:39:44;;;;;;;5.80;3.03;;;3.90;99.90;;;;;;5058222;28;20683;-64
2023/03/08 09:42:26;;;;;;;5.13;3.43;;;4.10;99.90;;;;;;5056490;28;20209;-65
2023/03/08 09:45:27;;;;;;;4.73;3.17;;;4.40;99.90;;;;;;5058169;28;20232;-63
2023/03/08 09:48:09;;;;;;;2.63;2.40;;;4.50;99.90;;;;;;5057848;28;20691;-64
2023/03/08 09:50:46;;;;;;;4.57;2.60;;;4.70;99.90;;;;;;5057842;28;20255;-65
2023/03/08 09:53:20;;;;;;;2.70;2.50;;;4.90;99.90;;;;;;5056236;28;20202;-65
2023/03/08 09:55:56;;;;;;;2.60;2.17;;;4.90;99.90;;;;;;5058252;28;20619;-65
2023/03/08 09:58:47;;;;;;;3.93;3.03;;;4.50;99.90;;;;;;5057071;28;20197;-66
2023/03/08 10:01:39;;;;;;;4.03;3.10;;;4.30;99.90;;;;;;5056502;28;20194;-64
2023/03/08 10:04:22;;;;;;;3.07;2.77;;;4.50;99.90;;;;;;5056073;28;20198;-66
2023/03/08 10:07:25;;;;;;;3.73;3.40;;;4.70;99.90;;;;;;5055025;28;20567;-66
2023/03/08 10:10:19;;;;;;;2.67;2.47;;;5.00;99.90;;;;;;5054865;28;20214;-66
2023/03/08 10:13:05;;;;;;;3.63;3.20;;;5.10;99.90;;;;;;5057506;28;20229;-66
2023/03/08 10:15:37;;;;;;;3.57;3.27;;;4.80;99.90;;;;;;5057423;28;20609;-67
2023/03/08 10:18:33;;;;;;;3.30;2.97;;;4.70;99.90;;;;;;5056268;28;20277;-65
2023/03/08 10:21:00;;;;;;;6.50;3.20;;;4.90;99.90;;;;;;5056159;28;20636;-63
2023/03/08 10:23:28;;;;;;;5.43;2.60;;;5.20;99.90;;;;;;5054958;28;20222;-66
2023/03/08 10:25:53;;;;;;;2.80;2.50;;;5.40;99.50;;;;;;5052626;28;20774;-66
2023/03/08 10:28:22;;;;;;;3.30;3.00;;;5.30;98.50;;;;;;5054644;28;20174;-67
2023/03/08 10:30:57;;;;;;;3.00;2.40;;;5.40;98.70;;;;;;5053716;28;20203;-65
2023/03/08 10:33:25;;;;;;;3.23;2.40;;;5.50;98.60;;;;;;5052829;28;20216;-68
2023/03/08 10:36:21;;;;;;;3.00;2.70;;;5.60;98.00;;;;;;5053389;28;20194;-69
2023/03/08 10:39:06;;;;;;;3.33;3.03;;;5.60;98.50;;;;;;5056831;28;20230;-69
2023/03/08 10:41:41;;;;;;;2.30;2.20;;;5.40;97.70;;;;;;5052586;28;20271;-69
2023/03/08 10:44:13;;;;;;;4.10;3.17;;;5.00;97.80;;;;;;5056664;28;20314;-69
2023/03/08 10:46:46;;;;;;;4.87;2.80;;;5.00;98.20;;;;;;5054633;28;20213;-69
2023/03/08 10:49:18;;;;;;;3.10;2.70;;;5.20;98.00;;;;;;5053026;28;20209;-69
2023/03/08 10:51:56;;;;;;;2.73;2.43;;;5.40;97.70;;;;;;5056293;28;20194;-70
2023/03/08 10:54:22;;;;;;;2.70;2.50;;;5.70;97.10;;;;;;5053067;28;20194;-74
2023/03/08 10:56:55;;;;;;;3.47;3.17;;;6.10;97.50;;;;;;5056917;28;20605;-74
2023/03/08 10:59:31;;;;;;;3.30;2.87;;;6.40;96.90;;;;;;5054360;28;20194;-68
2023/03/08 11:01:59;;;;;;;4.63;3.40;;;6.40;95.90;;;;;;5037680;28;20217;-66
2023/03/08 11:04:27;;;;;;;4.70;3.03;;;6.40;95.70;;;;;;5056621;28;20194;-67
2023/03/08 11:06:53;;;;;;;3.77;2.60;;;6.30;95.10;;;;;;5054506;28;20190;-65
2023/03/08 11:09:22;;;;;;;3.97;3.50;;;6.20;95.10;;;;;;5051588;28;20210;-66
2023/03/08 11:11:47;;;;;;;3.50;3.13;;;6.10;95.90;;;;;;5056133;28;20782;-68
2023/03/08 11:14:14;;;;;;;3.63;2.50;;;6.10;96.20;;;;;;5056182;28;20300;-67
2023/03/08 11:16:54;;;;;;;4.87;3.27;;;6.30;95.90;;;;;;5052826;28;20676;-68
2023/03/08 11:19:44;;;;;;;3.93;3.00;;;6.40;95.90;;;;;;5053036;28;20205;-69
2023/03/08 11:22:24;;;;;;;3.83;3.37;;;6.60;95.60;;;;;;5052805;28;20217;-70
2023/03/08 11:25:22;;;;;;;4.87;2.80;;;6.50;95.70;;;;;;5051771;28;20224;-71
2023/03/08 11:28:24;;;;;;;4.20;3.00;;;6.60;96.00;;;;;;5052095;28;20210;-70
2023/03/08 11:31:08;;;;;;;3.80;3.50;;;6.60;96.20;;;;;;5052638;28;20202;-67
2023/03/08 11:33:56;;;;;;;7.73;3.37;;;6.60;96.10;;;;;;5051818;28;20200;-66
2023/03/08 11:36:46;;;;;;;3.80;3.00;;;6.30;95.00;;;;;;5017522;28;20198;-65
2023/03/08 11:39:31;;;;;;;4.07;2.87;;;6.00;95.90;;;;;;5055219;28;20243;-68
2023/03/08 11:42:13;;;;;;;124.47;112.97;;;5.70;96.00;;;;;;5052074;28;20189;-83
2023/03/08 11:45:03;;;;;;;15.63;14.43;;;5.90;96.60;;;;;;5054468;28;20209;-75
2023/03/08 11:47:52;;;;;;;4.47;3.17;;;5.90;96.50;;;;;;5054152;28;21057;-76
2023/03/08 11:50:23;;;;;;;3.50;3.17;;;6.00;95.70;;;;;;5054178;28;20683;-73
2023/03/08 11:53:23;;;;;;;2.70;2.50;;;6.00;95.30;;;;;;5054466;28;20253;-72
2023/03/08 11:56:07;;;;;;;2.30;2.10;;;6.30;95.60;;;;;;5033828;28;20270;-74
2023/03/08 11:58:39;;;;;;;3.53;2.47;;;6.30;94.20;;;;;;5053532;28;20609;-73
2023/03/08 12:01:12;;;;;;;3.00;2.70;;;6.50;94.40;;;;;;5054788;28;20277;-73
2023/03/08 12:03:44;;;;;;;3.57;3.10;;;6.50;94.70;;;;;;5052811;28;20557;-75
2023/03/08 12:06:23;;;;;;;3.43;3.13;;;6.60;94.10;;;;;;5049741;28;20194;-73
2023/03/08 12:09:03;;;;;;;5.80;3.17;;;6.50;94.60;;;;;;5046759;28;20222;-74
2023/03/08 12:11:38;;;;;;;3.30;2.97;;;6.50;94.60;;;;;;5049045;28;20212;-74
2023/03/08 12:14:15;;;;;;;4.53;3.20;;;6.40;94.30;;;;;;5049618;28;20213;-73
2023/03/08 12:16:53;;;;;;;4.37;2.60;;;6.20;94.50;;;;;;5051821;28;20209;-72
2023/03/08 12:19:40;;;;;;;3.00;2.80;;;6.10;94.30;;;;;;5049243;28;20229;-72
2023/03/08 12:22:24;;;;;;;3.00;2.80;;;6.10;94.60;;;;;;5051622;28;20206;-72
2023/03/08 12:25:12;;;;;;;4.30;2.90;;;6.50;94.50;;;;;;5034406;28;20300;-73
2023/03/08 12:28:19;;;;;;;3.47;3.17;;;6.90;94.20;;;;;;5055263;28;20754;-73
2023/03/08 12:31:00;;;;;;;3.13;2.70;;;7.30;93.40;;;;;;5042308;28;20686;-79
2023/03/08 12:33:27;;;;;;;3.07;2.77;;;7.40;91.80;;;;;;5049031;28;20198;-71
2023/03/08 12:36:01;;;;;;;4.83;3.47;;;7.20;91.90;;;;;;5037210;28;20620;-72
2023/03/08 12:38:43;;;;;;;5.53;3.23;;;7.20;92.00;;;;;;5055310;28;20302;-72
2023/03/08 12:41:27;;;;;;;2.80;2.17;;;7.10;92.00;;;;;;5055521;28;20210;-74
2023/03/08 12:44:21;;;;;;;2.80;2.60;;;7.20;91.60;;;;;;5065378;28;20194;-86
2023/03/08 12:46:57;;;;;;;35.37;30.80;;;7.10;91.70;;;;;;5069076;28;20242;-73
2023/03/08 12:49:38;;;;;;;34.77;31.37;;;6.80;91.90;;;;;;5059805;28;20217;-74
2023/03/08 12:52:18;;;;;;;3.77;3.27;;;6.80;91.80;;;;;;5061663;28;20546;-75
2023/03/08 12:54:59;;;;;;;3.10;2.80;;;6.60;92.60;;;;;;5061392;28;20186;-73
2023/03/08 12:57:41;;;;;;;3.23;2.93;;;6.60;92.60;;;;;;5059199;28;20194;-72
2023/03/08 13:00:23;;;;;;;3.20;2.90;;;6.60;92.40;;;;;;5055062;28;20252;-73
2023/03/08 13:03:05;;;;;;;3.47;3.17;;;6.60;93.10;;;;;;5059687;28;20240;-75